Acmar, Alabama
Current Conditions -  °F | °C
As of 8:18 AM on Sunday 21 Dec 2014 (Local Time) from KBHM Reporting Station
Scattered Clouds Scattered Clouds  
Wind Chill:   Ceiling: Unl
Heat Index:   Visibility: 7mi
Dew Point:   Wind: 5mph
Humidity: 83%   Direction: 100°E
Pressure: 30.19"   Gusts: NA
Location:  33.6013°N, 86.5003°W
Report Text: KBHM 211418Z 10004KT 7SM SCT009 08/06 A3019 RMK AO2 T00830056
Loading
Personal Weather Stations






























Interactive Weather Map New forecast layout! Learn more

10-Day Weather Forecast

Advertisements
Track Severe Weather on mobile